sensor_id;sensor_type;location;lat;lon;timestamp;temperature;humidity
33067;DHT22;19428;49.024;8.366;2023-12-29T00:01:49;10.50;99.90
33067;DHT22;19428;49.024;8.366;2023-12-29T00:04:14;10.50;99.90
33067;DHT22;19428;49.024;8.366;2023-12-29T00:06:41;10.50;99.90
33067;DHT22;19428;49.024;8.366;2023-12-29T00:09:09;10.40;99.90
33067;DHT22;19428;49.024;8.366;2023-12-29T00:11:34;10.40;99.90
33067;DHT22;19428;49.024;8.366;2023-12-29T00:14:00;10.30;99.90
33067;DHT22;19428;49.024;8.366;2023-12-29T00:16:29;10.30;99.90
33067;DHT22;19428;49.024;8.366;2023-12-29T00:18:54;10.20;99.90
33067;DHT22;19428;49.024;8.366;2023-12-29T00:21:31;10.20;99.90
33067;DHT22;19428;49.024;8.366;2023-12-29T00:23:56;10.20;99.90
33067;DHT22;19428;49.024;8.366;2023-12-29T01:11:09;9.80;99.90
33067;DHT22;19428;49.024;8.366;2023-12-29T01:14:05;9.70;99.90
33067;DHT22;19428;49.024;8.366;2023-12-29T01:17:03;9.80;99.90
33067;DHT22;19428;49.024;8.366;2023-12-29T01:19:50;9.80;99.90
33067;DHT22;19428;49.024;8.366;2023-12-29T01:26:16;9.70;99.90
33067;DHT22;19428;49.024;8.366;2023-12-29T01:36:22;9.80;99.90
33067;DHT22;19428;49.024;8.366;2023-12-29T02:31:18;10.00;99.90
33067;DHT22;19428;49.024;8.366;2023-12-29T02:34:02;10.00;99.90
33067;DHT22;19428;49.024;8.366;2023-12-29T02:37:05;10.00;99.90
33067;DHT22;19428;49.024;8.366;2023-12-29T04:59:50;9.90;99.90
33067;DHT22;19428;49.024;8.366;2023-12-29T05:02:23;9.90;99.90
33067;DHT22;19428;49.024;8.366;2023-12-29T05:04:49;9.90;99.90
33067;DHT22;19428;49.024;8.366;2023-12-29T05:07:15;9.80;99.90
33067;DHT22;19428;49.024;8.366;2023-12-29T05:12:50;9.80;99.90
33067;DHT22;19428;49.024;8.366;2023-12-29T05:15:16;9.70;99.90
33067;DHT22;19428;49.024;8.366;2023-12-29T05:17:41;9.70;99.90
33067;DHT22;19428;49.024;8.366;2023-12-29T05:20:07;9.70;99.90
33067;DHT22;19428;49.024;8.366;2023-12-29T05:22:34;9.70;99.90
33067;DHT22;19428;49.024;8.366;2023-12-29T05:25:00;9.70;99.90
33067;DHT22;19428;49.024;8.366;2023-12-29T05:27:27;9.70;99.90
33067;DHT22;19428;49.024;8.366;2023-12-29T05:29:53;9.70;99.90
33067;DHT22;19428;49.024;8.366;2023-12-29T05:32:19;9.70;99.90
33067;DHT22;19428;49.024;8.366;2023-12-29T05:34:44;9.70;99.90
33067;DHT22;19428;49.024;8.366;2023-12-29T05:37:10;9.70;99.90
33067;DHT22;19428;49.024;8.366;2023-12-29T05:39:35;9.60;99.90
33067;DHT22;19428;49.024;8.366;2023-12-29T05:42:01;9.50;99.90
33067;DHT22;19428;49.024;8.366;2023-12-29T05:44:27;9.50;99.90
33067;DHT22;19428;49.024;8.366;2023-12-29T05:46:52;9.50;99.90
33067;DHT22;19428;49.024;8.366;2023-12-29T05:49:24;9.40;99.90
33067;DHT22;19428;49.024;8.366;2023-12-29T05:51:49;9.40;99.90
33067;DHT22;19428;49.024;8.366;2023-12-29T05:54:15;9.40;99.90
33067;DHT22;19428;49.024;8.366;2023-12-29T05:56:41;9.40;99.90
33067;DHT22;19428;49.024;8.366;2023-12-29T05:59:07;9.30;99.90
33067;DHT22;19428;49.024;8.366;2023-12-29T06:01:32;9.30;99.90
33067;DHT22;19428;49.024;8.366;2023-12-29T06:03:58;9.30;99.90
33067;DHT22;19428;49.024;8.366;2023-12-29T06:06:24;9.20;99.90
33067;DHT22;19428;49.024;8.366;2023-12-29T06:52:02;9.40;99.90
33067;DHT22;19428;49.024;8.366;2023-12-29T06:57:38;9.50;99.90
33067;DHT22;19428;49.024;8.366;2023-12-29T07:21:30;9.50;99.90
33067;DHT22;19428;49.024;8.366;2023-12-29T07:23:56;9.50;99.90
33067;DHT22;19428;49.024;8.366;2023-12-29T07:26:29;9.60;99.90
33067;DHT22;19428;49.024;8.366;2023-12-29T07:52:21;9.90;99.90
33067;DHT22;19428;49.024;8.366;2023-12-29T07:55:24;9.90;99.90
33067;DHT22;19428;49.024;8.366;2023-12-29T07:57:51;9.90;99.90
33067;DHT22;19428;49.024;8.366;2023-12-29T08:00:20;9.90;99.90
33067;DHT22;19428;49.024;8.366;2023-12-29T08:02:53;9.90;99.90
33067;DHT22;19428;49.024;8.366;2023-12-29T08:05:18;10.00;99.90
33067;DHT22;19428;49.024;8.366;2023-12-29T08:07:44;9.90;99.90
33067;DHT22;19428;49.024;8.366;2023-12-29T08:10:10;9.90;99.90
33067;DHT22;19428;49.024;8.366;2023-12-29T08:12:36;9.90;99.90
33067;DHT22;19428;49.024;8.366;2023-12-29T08:15:02;9.90;99.90
33067;DHT22;19428;49.024;8.366;2023-12-29T08:17:32;9.90;99.90
33067;DHT22;19428;49.024;8.366;2023-12-29T08:19:57;10.00;99.90
33067;DHT22;19428;49.024;8.366;2023-12-29T08:22:23;10.00;99.90
33067;DHT22;19428;49.024;8.366;2023-12-29T08:28:13;10.00;99.90
33067;DHT22;19428;49.024;8.366;2023-12-29T08:37:11;10.10;99.90
33067;DHT22;19428;49.024;8.366;2023-12-29T08:42:22;10.20;99.90
33067;DHT22;19428;49.024;8.366;2023-12-29T08:44:48;10.20;99.90
33067;DHT22;19428;49.024;8.366;2023-12-29T08:47:14;10.20;99.90
33067;DHT22;19428;49.024;8.366;2023-12-29T08:49:42;10.30;99.90
33067;DHT22;19428;49.024;8.366;2023-12-29T08:52:08;10.40;99.90
33067;DHT22;19428;49.024;8.366;2023-12-29T08:54:38;10.30;99.90
33067;DHT22;19428;49.024;8.366;2023-12-29T08:57:04;10.30;99.90
33067;DHT22;19428;49.024;8.366;2023-12-29T08:59:33;10.40;99.90
33067;DHT22;19428;49.024;8.366;2023-12-29T09:02:02;10.40;99.90
33067;DHT22;19428;49.024;8.366;2023-12-29T09:04:28;10.40;99.90
33067;DHT22;19428;49.024;8.366;2023-12-29T09:06:54;10.40;99.90
33067;DHT22;19428;49.024;8.366;2023-12-29T09:09:20;10.40;99.90
33067;DHT22;19428;49.024;8.366;2023-12-29T09:11:46;10.50;99.90
33067;DHT22;19428;49.024;8.366;2023-12-29T09:14:12;10.60;99.90
33067;DHT22;19428;49.024;8.366;2023-12-29T09:16:38;10.70;99.90
33067;DHT22;19428;49.024;8.366;2023-12-29T09:19:05;10.70;99.90
33067;DHT22;19428;49.024;8.366;2023-12-29T09:21:34;10.80;99.90
33067;DHT22;19428;49.024;8.366;2023-12-29T09:24:00;10.80;99.90
33067;DHT22;19428;49.024;8.366;2023-12-29T09:26:29;10.80;99.90
33067;DHT22;19428;49.024;8.366;2023-12-29T09:59:10;11.50;99.90
33067;DHT22;19428;49.024;8.366;2023-12-29T10:09:25;11.60;99.90
33067;DHT22;19428;49.024;8.366;2023-12-29T10:11:54;11.70;99.90
33067;DHT22;19428;49.024;8.366;2023-12-29T10:14:30;11.70;99.90
33067;DHT22;19428;49.024;8.366;2023-12-29T10:17:06;11.70;99.90
33067;DHT22;19428;49.024;8.366;2023-12-29T10:19:40;11.70;99.90
33067;DHT22;19428;49.024;8.366;2023-12-29T10:22:21;11.80;99.90
33067;DHT22;19428;49.024;8.366;2023-12-29T10:24:49;11.80;99.90
33067;DHT22;19428;49.024;8.366;2023-12-29T10:27:22;11.80;99.90
33067;DHT22;19428;49.024;8.366;2023-12-29T10:29:48;11.90;99.90
33067;DHT22;19428;49.024;8.366;2023-12-29T10:32:16;11.90;99.90
33067;DHT22;19428;49.024;8.366;2023-12-29T10:34:43;12.00;99.90
33067;DHT22;19428;49.024;8.366;2023-12-29T10:37:09;12.00;99.90
33067;DHT22;19428;49.024;8.366;2023-12-29T10:39:55;12.10;99.90
33067;DHT22;19428;49.024;8.366;2023-12-29T10:42:32;12.10;99.90
33067;DHT22;19428;49.024;8.366;2023-12-29T10:45:09;12.30;99.90
33067;DHT22;19428;49.024;8.366;2023-12-29T10:47:35;12.40;99.90
33067;DHT22;19428;49.024;8.366;2023-12-29T10:50:03;12.40;99.90
33067;DHT22;19428;49.024;8.366;2023-12-29T10:52:32;12.50;99.90
33067;DHT22;19428;49.024;8.366;2023-12-29T10:55:11;12.60;99.90
33067;DHT22;19428;49.024;8.366;2023-12-29T10:57:38;12.50;99.90
33067;DHT22;19428;49.024;8.366;2023-12-29T11:00:05;12.60;99.90
33067;DHT22;19428;49.024;8.366;2023-12-29T11:02:33;12.70;99.90
33067;DHT22;19428;49.024;8.366;2023-12-29T11:05:04;12.60;99.90
33067;DHT22;19428;49.024;8.366;2023-12-29T11:07:34;12.60;99.90
33067;DHT22;19428;49.024;8.366;2023-12-29T11:10:02;12.70;99.90
33067;DHT22;19428;49.024;8.366;2023-12-29T11:12:33;13.00;99.90
33067;DHT22;19428;49.024;8.366;2023-12-29T11:15:01;13.00;99.90
33067;DHT22;19428;49.024;8.366;2023-12-29T11:17:29;13.20;99.90
33067;DHT22;19428;49.024;8.366;2023-12-29T11:19:55;13.40;99.90
33067;DHT22;19428;49.024;8.366;2023-12-29T11:22:23;13.30;99.90
33067;DHT22;19428;49.024;8.366;2023-12-29T11:24:49;13.60;99.90
33067;DHT22;19428;49.024;8.366;2023-12-29T11:27:16;13.30;99.90
33067;DHT22;19428;49.024;8.366;2023-12-29T11:29:42;13.40;99.90
33067;DHT22;19428;49.024;8.366;2023-12-29T11:32:14;13.60;99.90
33067;DHT22;19428;49.024;8.366;2023-12-29T11:34:46;13.50;99.90
33067;DHT22;19428;49.024;8.366;2023-12-29T11:37:26;13.60;99.90
33067;DHT22;19428;49.024;8.366;2023-12-29T11:40:17;13.50;99.90
33067;DHT22;19428;49.024;8.366;2023-12-29T11:42:49;13.50;99.90
33067;DHT22;19428;49.024;8.366;2023-12-29T11:45:29;13.20;99.90
33067;DHT22;19428;49.024;8.366;2023-12-29T11:47:55;13.20;99.90
33067;DHT22;19428;49.024;8.366;2023-12-29T11:50:35;13.10;99.90
33067;DHT22;19428;49.024;8.366;2023-12-29T11:53:02;13.20;99.90
33067;DHT22;19428;49.024;8.366;2023-12-29T11:55:30;13.00;99.90
33067;DHT22;19428;49.024;8.366;2023-12-29T11:57:56;12.90;99.90
33067;DHT22;19428;49.024;8.366;2023-12-29T12:00:44;12.90;99.90
33067;DHT22;19428;49.024;8.366;2023-12-29T12:03:30;12.90;99.90
33067;DHT22;19428;49.024;8.366;2023-12-29T12:05:59;12.90;99.90
33067;DHT22;19428;49.024;8.366;2023-12-29T12:10:55;12.80;99.90
33067;DHT22;19428;49.024;8.366;2023-12-29T12:13:43;12.80;99.90
33067;DHT22;19428;49.024;8.366;2023-12-29T12:16:09;12.80;99.90
33067;DHT22;19428;49.024;8.366;2023-12-29T12:18:35;12.80;99.90
33067;DHT22;19428;49.024;8.366;2023-12-29T12:21:03;12.70;99.90
33067;DHT22;19428;49.024;8.366;2023-12-29T12:23:33;12.80;99.90
33067;DHT22;19428;49.024;8.366;2023-12-29T12:26:01;12.80;99.90
33067;DHT22;19428;49.024;8.366;2023-12-29T12:28:26;12.80;99.90
33067;DHT22;19428;49.024;8.366;2023-12-29T12:31:04;12.80;99.90
33067;DHT22;19428;49.024;8.366;2023-12-29T12:33:30;12.80;99.90
33067;DHT22;19428;49.024;8.366;2023-12-29T12:36:00;12.80;99.90
33067;DHT22;19428;49.024;8.366;2023-12-29T12:38:26;12.70;99.90
33067;DHT22;19428;49.024;8.366;2023-12-29T12:40:52;12.70;99.90
33067;DHT22;19428;49.024;8.366;2023-12-29T12:43:18;12.70;99.90
33067;DHT22;19428;49.024;8.366;2023-12-29T12:45:52;12.80;99.90
33067;DHT22;19428;49.024;8.366;2023-12-29T12:48:23;12.80;99.90
33067;DHT22;19428;49.024;8.366;2023-12-29T12:50:54;12.90;99.90
33067;DHT22;19428;49.024;8.366;2023-12-29T12:53:23;13.00;99.90
33067;DHT22;19428;49.024;8.366;2023-12-29T12:55:49;13.00;99.90
33067;DHT22;19428;49.024;8.366;2023-12-29T12:58:20;13.00;99.90
33067;DHT22;19428;49.024;8.366;2023-12-29T13:00:49;13.10;99.90
33067;DHT22;19428;49.024;8.366;2023-12-29T13:03:16;13.10;99.90
33067;DHT22;19428;49.024;8.366;2023-12-29T13:05:42;13.00;99.90
33067;DHT22;19428;49.024;8.366;2023-12-29T13:08:08;13.00;99.80
33067;DHT22;19428;49.024;8.366;2023-12-29T13:10:34;13.10;99.90
33067;DHT22;19428;49.024;8.366;2023-12-29T13:13:05;13.10;93.80
33067;DHT22;19428;49.024;8.366;2023-12-29T13:15:30;13.10;94.30
33067;DHT22;19428;49.024;8.366;2023-12-29T13:17:56;13.10;91.70
33067;DHT22;19428;49.024;8.366;2023-12-29T13:20:22;13.20;87.40
33067;DHT22;19428;49.024;8.366;2023-12-29T13:22:49;13.10;90.30
33067;DHT22;19428;49.024;8.366;2023-12-29T13:25:24;13.10;89.90
33067;DHT22;19428;49.024;8.366;2023-12-29T13:27:51;13.10;90.50
33067;DHT22;19428;49.024;8.366;2023-12-29T13:30:19;13.00;90.70
33067;DHT22;19428;49.024;8.366;2023-12-29T13:32:47;13.00;92.80
33067;DHT22;19428;49.024;8.366;2023-12-29T13:35:23;12.90;95.50
33067;DHT22;19428;49.024;8.366;2023-12-29T13:38:10;12.90;99.10
33067;DHT22;19428;49.024;8.366;2023-12-29T13:40:52;12.90;99.90
33067;DHT22;19428;49.024;8.366;2023-12-29T13:43:20;12.90;99.90
33067;DHT22;19428;49.024;8.366;2023-12-29T13:45:46;12.90;99.90
33067;DHT22;19428;49.024;8.366;2023-12-29T13:48:13;13.00;99.90
33067;DHT22;19428;49.024;8.366;2023-12-29T13:50:40;12.90;99.90
33067;DHT22;19428;49.024;8.366;2023-12-29T13:53:17;12.90;99.90
33067;DHT22;19428;49.024;8.366;2023-12-29T13:55:42;12.80;99.90
33067;DHT22;19428;49.024;8.366;2023-12-29T13:58:11;12.90;99.90
33067;DHT22;19428;49.024;8.366;2023-12-29T14:00:40;12.80;97.50
33067;DHT22;19428;49.024;8.366;2023-12-29T14:03:10;12.90;91.50
33067;DHT22;19428;49.024;8.366;2023-12-29T14:05:48;12.80;92.60
33067;DHT22;19428;49.024;8.366;2023-12-29T14:08:30;12.80;92.40
33067;DHT22;19428;49.024;8.366;2023-12-29T14:10:57;12.80;97.30
33067;DHT22;19428;49.024;8.366;2023-12-29T14:13:23;12.70;98.60
33067;DHT22;19428;49.024;8.366;2023-12-29T14:15:48;12.70;96.00
33067;DHT22;19428;49.024;8.366;2023-12-29T14:21:00;12.60;92.90
33067;DHT22;19428;49.024;8.366;2023-12-29T14:23:26;12.60;93.70
33067;DHT22;19428;49.024;8.366;2023-12-29T14:25:51;12.60;86.80
33067;DHT22;19428;49.024;8.366;2023-12-29T14:28:20;12.50;89.70
33067;DHT22;19428;49.024;8.366;2023-12-29T14:30:49;12.60;82.30
33067;DHT22;19428;49.024;8.366;2023-12-29T14:33:15;12.50;84.10
33067;DHT22;19428;49.024;8.366;2023-12-29T14:35:41;12.50;83.20
33067;DHT22;19428;49.024;8.366;2023-12-29T14:38:07;12.40;79.20
33067;DHT22;19428;49.024;8.366;2023-12-29T14:40:32;12.50;74.70
33067;DHT22;19428;49.024;8.366;2023-12-29T14:43:01;12.40;72.60
33067;DHT22;19428;49.024;8.366;2023-12-29T14:45:27;12.40;70.00
33067;DHT22;19428;49.024;8.366;2023-12-29T14:47:57;12.30;69.60
33067;DHT22;19428;49.024;8.366;2023-12-29T14:50:23;12.40;71.30
33067;DHT22;19428;49.024;8.366;2023-12-29T14:52:49;12.30;73.10
33067;DHT22;19428;49.024;8.366;2023-12-29T14:55:14;12.40;72.30
33067;DHT22;19428;49.024;8.366;2023-12-29T14:57:40;12.30;69.40
33067;DHT22;19428;49.024;8.366;2023-12-29T15:00:07;12.30;67.20
33067;DHT22;19428;49.024;8.366;2023-12-29T15:02:34;12.30;68.60
33067;DHT22;19428;49.024;8.366;2023-12-29T15:05:00;12.30;63.20
33067;DHT22;19428;49.024;8.366;2023-12-29T15:07:25;12.30;64.50
33067;DHT22;19428;49.024;8.366;2023-12-29T15:09:56;12.30;64.90
33067;DHT22;19428;49.024;8.366;2023-12-29T15:12:21;12.10;68.40
33067;DHT22;19428;49.024;8.366;2023-12-29T15:14:47;12.20;66.70
33067;DHT22;19428;49.024;8.366;2023-12-29T15:17:13;12.10;69.10
33067;DHT22;19428;49.024;8.366;2023-12-29T15:19:38;12.20;67.00
33067;DHT22;19428;49.024;8.366;2023-12-29T15:22:04;12.00;71.60
33067;DHT22;19428;49.024;8.366;2023-12-29T15:24:29;12.00;73.10
33067;DHT22;19428;49.024;8.366;2023-12-29T15:26:55;12.10;71.50
33067;DHT22;19428;49.024;8.366;2023-12-29T15:29:21;12.10;70.50
33067;DHT22;19428;49.024;8.366;2023-12-29T15:31:48;12.10;68.00
33067;DHT22;19428;49.024;8.366;2023-12-29T15:34:13;12.20;64.40
33067;DHT22;19428;49.024;8.366;2023-12-29T15:36:39;12.20;64.50
33067;DHT22;19428;49.024;8.366;2023-12-29T15:39:05;12.10;66.70
33067;DHT22;19428;49.024;8.366;2023-12-29T15:41:34;12.10;68.80
33067;DHT22;19428;49.024;8.366;2023-12-29T15:43:59;12.00;69.20
33067;DHT22;19428;49.024;8.366;2023-12-29T15:46:25;12.10;68.30
33067;DHT22;19428;49.024;8.366;2023-12-29T15:48:51;12.10;65.60
33067;DHT22;19428;49.024;8.366;2023-12-29T15:51:17;12.10;66.10
33067;DHT22;19428;49.024;8.366;2023-12-29T15:53:43;12.10;65.40
33067;DHT22;19428;49.024;8.366;2023-12-29T15:56:16;12.00;65.10
33067;DHT22;19428;49.024;8.366;2023-12-29T15:58:44;12.00;66.00
33067;DHT22;19428;49.024;8.366;2023-12-29T16:01:10;12.10;63.30
33067;DHT22;19428;49.024;8.366;2023-12-29T16:03:36;12.00;64.70
33067;DHT22;19428;49.024;8.366;2023-12-29T16:06:01;12.10;58.80
33067;DHT22;19428;49.024;8.366;2023-12-29T16:08:28;12.20;58.00
33067;DHT22;19428;49.024;8.366;2023-12-29T16:10:54;12.00;61.80
33067;DHT22;19428;49.024;8.366;2023-12-29T16:13:19;12.10;59.90
33067;DHT22;19428;49.024;8.366;2023-12-29T16:15:45;12.00;63.80
33067;DHT22;19428;49.024;8.366;2023-12-29T16:18:13;12.00;63.40
33067;DHT22;19428;49.024;8.366;2023-12-29T16:20:39;12.00;61.30
33067;DHT22;19428;49.024;8.366;2023-12-29T16:23:05;12.00;60.90
33067;DHT22;19428;49.024;8.366;2023-12-29T16:25:30;12.00;61.80
33067;DHT22;19428;49.024;8.366;2023-12-29T16:27:56;12.00;61.30
33067;DHT22;19428;49.024;8.366;2023-12-29T16:30:21;12.00;63.70
33067;DHT22;19428;49.024;8.366;2023-12-29T16:32:47;11.90;64.20
33067;DHT22;19428;49.024;8.366;2023-12-29T16:35:12;11.90;62.60
33067;DHT22;19428;49.024;8.366;2023-12-29T16:37:38;11.90;62.60
33067;DHT22;19428;49.024;8.366;2023-12-29T16:40:05;11.90;60.00
33067;DHT22;19428;49.024;8.366;2023-12-29T16:42:31;11.90;58.60
33067;DHT22;19428;49.024;8.366;2023-12-29T16:44:56;12.00;58.50
33067;DHT22;19428;49.024;8.366;2023-12-29T16:47:22;11.90;56.70
33067;DHT22;19428;49.024;8.366;2023-12-29T16:49:48;11.90;55.10
33067;DHT22;19428;49.024;8.366;2023-12-29T16:52:13;12.00;54.30
33067;DHT22;19428;49.024;8.366;2023-12-29T16:54:39;11.90;54.00
33067;DHT22;19428;49.024;8.366;2023-12-29T16:57:04;11.90;55.10
33067;DHT22;19428;49.024;8.366;2023-12-29T16:59:30;11.90;50.60
33067;DHT22;19428;49.024;8.366;2023-12-29T17:01:56;12.00;51.10
33067;DHT22;19428;49.024;8.366;2023-12-29T17:04:23;12.00;51.00
33067;DHT22;19428;49.024;8.366;2023-12-29T17:06:49;11.90;49.70
33067;DHT22;19428;49.024;8.366;2023-12-29T17:09:14;12.00;51.80
33067;DHT22;19428;49.024;8.366;2023-12-29T17:11:43;12.00;50.90
33067;DHT22;19428;49.024;8.366;2023-12-29T17:14:10;11.90;52.10
33067;DHT22;19428;49.024;8.366;2023-12-29T17:16:40;11.90;51.70
33067;DHT22;19428;49.024;8.366;2023-12-29T17:19:05;11.90;49.10
33067;DHT22;19428;49.024;8.366;2023-12-29T17:21:31;11.90;49.60
33067;DHT22;19428;49.024;8.366;2023-12-29T17:23:56;11.90;50.90
33067;DHT22;19428;49.024;8.366;2023-12-29T17:26:22;11.90;50.70
33067;DHT22;19428;49.024;8.366;2023-12-29T17:28:48;11.90;50.00
33067;DHT22;19428;49.024;8.366;2023-12-29T17:31:16;11.90;49.60
33067;DHT22;19428;49.024;8.366;2023-12-29T17:33:42;11.90;50.90
33067;DHT22;19428;49.024;8.366;2023-12-29T17:36:09;11.80;50.00
33067;DHT22;19428;49.024;8.366;2023-12-29T17:38:35;11.90;49.60
33067;DHT22;19428;49.024;8.366;2023-12-29T17:41:04;11.90;48.20
33067;DHT22;19428;49.024;8.366;2023-12-29T17:43:30;11.90;46.60
33067;DHT22;19428;49.024;8.366;2023-12-29T17:45:57;11.90;48.00
33067;DHT22;19428;49.024;8.366;2023-12-29T17:48:23;11.90;47.00
33067;DHT22;19428;49.024;8.366;2023-12-29T17:50:48;11.80;47.70
33067;DHT22;19428;49.024;8.366;2023-12-29T17:53:15;11.70;50.70
33067;DHT22;19428;49.024;8.366;2023-12-29T17:55:43;11.70;50.80
33067;DHT22;19428;49.024;8.366;2023-12-29T17:58:09;11.70;52.60
33067;DHT22;19428;49.024;8.366;2023-12-29T18:00:35;11.60;53.10
33067;DHT22;19428;49.024;8.366;2023-12-29T18:03:01;11.60;53.00
33067;DHT22;19428;49.024;8.366;2023-12-29T18:05:30;11.70;52.90
33067;DHT22;19428;49.024;8.366;2023-12-29T18:07:58;11.60;55.10
33067;DHT22;19428;49.024;8.366;2023-12-29T18:10:24;11.70;55.80
33067;DHT22;19428;49.024;8.366;2023-12-29T18:12:52;11.60;58.00
33067;DHT22;19428;49.024;8.366;2023-12-29T18:15:18;11.60;58.10
33067;DHT22;19428;49.024;8.366;2023-12-29T18:17:44;11.60;58.80
33067;DHT22;19428;49.024;8.366;2023-12-29T18:20:09;11.60;59.70
33067;DHT22;19428;49.024;8.366;2023-12-29T18:22:42;11.60;60.20
33067;DHT22;19428;49.024;8.366;2023-12-29T18:25:08;11.60;62.50
33067;DHT22;19428;49.024;8.366;2023-12-29T18:27:34;11.60;66.20
33067;DHT22;19428;49.024;8.366;2023-12-29T18:30:03;11.60;64.20
33067;DHT22;19428;49.024;8.366;2023-12-29T18:32:30;11.70;61.50
33067;DHT22;19428;49.024;8.366;2023-12-29T18:34:55;11.70;61.40
33067;DHT22;19428;49.024;8.366;2023-12-29T18:37:21;11.70;60.70
33067;DHT22;19428;49.024;8.366;2023-12-29T18:39:50;11.70;59.10
33067;DHT22;19428;49.024;8.366;2023-12-29T18:42:16;11.60;58.30
33067;DHT22;19428;49.024;8.366;2023-12-29T18:44:44;11.60;56.70
33067;DHT22;19428;49.024;8.366;2023-12-29T18:47:12;11.60;58.00
33067;DHT22;19428;49.024;8.366;2023-12-29T18:49:37;11.60;55.90
33067;DHT22;19428;49.024;8.366;2023-12-29T18:52:03;11.70;54.00
33067;DHT22;19428;49.024;8.366;2023-12-29T18:54:29;11.60;53.80
33067;DHT22;19428;49.024;8.366;2023-12-29T18:56:58;11.60;55.70
33067;DHT22;19428;49.024;8.366;2023-12-29T18:59:24;11.60;54.00
33067;DHT22;19428;49.024;8.366;2023-12-29T19:01:49;11.40;55.70
33067;DHT22;19428;49.024;8.366;2023-12-29T19:04:16;11.50;53.70
33067;DHT22;19428;49.024;8.366;2023-12-29T19:06:44;11.50;53.50
33067;DHT22;19428;49.024;8.366;2023-12-29T19:09:10;11.50;52.40
33067;DHT22;19428;49.024;8.366;2023-12-29T19:11:40;11.50;51.70
33067;DHT22;19428;49.024;8.366;2023-12-29T19:14:06;11.40;52.40
33067;DHT22;19428;49.024;8.366;2023-12-29T19:16:32;11.40;53.40
33067;DHT22;19428;49.024;8.366;2023-12-29T19:18:58;11.30;52.00
33067;DHT22;19428;49.024;8.366;2023-12-29T19:21:26;11.40;52.10
33067;DHT22;19428;49.024;8.366;2023-12-29T19:23:53;11.30;53.00
33067;DHT22;19428;49.024;8.366;2023-12-29T19:26:23;11.30;53.50
33067;DHT22;19428;49.024;8.366;2023-12-29T19:28:52;11.20;54.80
33067;DHT22;19428;49.024;8.366;2023-12-29T19:31:18;11.20;55.00
33067;DHT22;19428;49.024;8.366;2023-12-29T19:33:46;11.20;54.70
33067;DHT22;19428;49.024;8.366;2023-12-29T19:36:12;11.10;54.90
33067;DHT22;19428;49.024;8.366;2023-12-29T19:38:43;11.20;54.60
33067;DHT22;19428;49.024;8.366;2023-12-29T19:41:14;11.10;55.60
33067;DHT22;19428;49.024;8.366;2023-12-29T19:43:41;11.00;55.50
33067;DHT22;19428;49.024;8.366;2023-12-29T19:46:07;11.10;54.70
33067;DHT22;19428;49.024;8.366;2023-12-29T19:48:33;11.10;54.10
33067;DHT22;19428;49.024;8.366;2023-12-29T19:50:58;11.20;53.10
33067;DHT22;19428;49.024;8.366;2023-12-29T19:53:26;11.20;52.30
33067;DHT22;19428;49.024;8.366;2023-12-29T19:55:54;11.10;54.00
33067;DHT22;19428;49.024;8.366;2023-12-29T19:58:20;11.10;54.30
33067;DHT22;19428;49.024;8.366;2023-12-29T20:00:48;11.20;52.50
33067;DHT22;19428;49.024;8.366;2023-12-29T20:03:13;11.10;55.00
33067;DHT22;19428;49.024;8.366;2023-12-29T20:05:39;11.20;53.70
33067;DHT22;19428;49.024;8.366;2023-12-29T20:08:08;11.20;53.90
33067;DHT22;19428;49.024;8.366;2023-12-29T20:10:35;11.20;54.50
33067;DHT22;19428;49.024;8.366;2023-12-29T20:13:01;11.20;54.40
33067;DHT22;19428;49.024;8.366;2023-12-29T20:15:27;11.30;53.20
33067;DHT22;19428;49.024;8.366;2023-12-29T20:17:54;11.30;54.10
33067;DHT22;19428;49.024;8.366;2023-12-29T20:20:20;11.30;54.80
33067;DHT22;19428;49.024;8.366;2023-12-29T20:22:47;11.40;52.50
33067;DHT22;19428;49.024;8.366;2023-12-29T20:25:16;11.50;52.20
33067;DHT22;19428;49.024;8.366;2023-12-29T20:27:41;11.50;53.80
33067;DHT22;19428;49.024;8.366;2023-12-29T20:30:07;11.40;54.80
33067;DHT22;19428;49.024;8.366;2023-12-29T20:32:33;11.60;52.50
33067;DHT22;19428;49.024;8.366;2023-12-29T20:34:59;11.60;52.40
33067;DHT22;19428;49.024;8.366;2023-12-29T20:37:25;11.60;52.60
33067;DHT22;19428;49.024;8.366;2023-12-29T20:39:51;11.50;54.80
33067;DHT22;19428;49.024;8.366;2023-12-29T20:42:17;11.60;53.10
33067;DHT22;19428;49.024;8.366;2023-12-29T20:44:42;11.50;54.00
33067;DHT22;19428;49.024;8.366;2023-12-29T20:47:08;11.40;56.80
33067;DHT22;19428;49.024;8.366;2023-12-29T20:49:33;11.30;57.30
33067;DHT22;19428;49.024;8.366;2023-12-29T20:51:59;11.40;57.10
33067;DHT22;19428;49.024;8.366;2023-12-29T20:54:25;11.30;57.80
33067;DHT22;19428;49.024;8.366;2023-12-29T20:56:50;11.20;59.60
33067;DHT22;19428;49.024;8.366;2023-12-29T20:59:16;11.40;57.40
33067;DHT22;19428;49.024;8.366;2023-12-29T21:01:42;11.30;57.40
33067;DHT22;19428;49.024;8.366;2023-12-29T21:04:08;11.30;58.50
33067;DHT22;19428;49.024;8.366;2023-12-29T21:09:24;11.20;61.30
33067;DHT22;19428;49.024;8.366;2023-12-29T21:11:49;11.20;61.00
33067;DHT22;19428;49.024;8.366;2023-12-29T21:14:17;11.20;61.40
33067;DHT22;19428;49.024;8.366;2023-12-29T21:16:49;11.20;60.70
33067;DHT22;19428;49.024;8.366;2023-12-29T21:19:15;11.20;60.20
33067;DHT22;19428;49.024;8.366;2023-12-29T21:21:44;11.30;60.40
33067;DHT22;19428;49.024;8.366;2023-12-29T21:24:12;11.20;63.10
33067;DHT22;19428;49.024;8.366;2023-12-29T21:26:47;11.20;63.00
33067;DHT22;19428;49.024;8.366;2023-12-29T21:29:12;11.20;63.90
33067;DHT22;19428;49.024;8.366;2023-12-29T21:31:39;11.40;59.50
33067;DHT22;19428;49.024;8.366;2023-12-29T21:34:07;11.30;63.50
33067;DHT22;19428;49.024;8.366;2023-12-29T21:36:37;11.30;63.60
33067;DHT22;19428;49.024;8.366;2023-12-29T21:39:02;11.30;64.10
33067;DHT22;19428;49.024;8.366;2023-12-29T21:41:34;11.40;61.80
33067;DHT22;19428;49.024;8.366;2023-12-29T21:44:00;11.30;62.00
33067;DHT22;19428;49.024;8.366;2023-12-29T21:46:28;11.30;64.20
33067;DHT22;19428;49.024;8.366;2023-12-29T21:48:53;11.30;65.20
33067;DHT22;19428;49.024;8.366;2023-12-29T21:51:22;11.30;64.20
33067;DHT22;19428;49.024;8.366;2023-12-29T21:53:49;11.20;65.60
33067;DHT22;19428;49.024;8.366;2023-12-29T21:56:15;11.20;67.70
33067;DHT22;19428;49.024;8.366;2023-12-29T21:58:40;11.20;74.00
33067;DHT22;19428;49.024;8.366;2023-12-29T22:01:28;11.10;80.20
33067;DHT22;19428;49.024;8.366;2023-12-29T22:03:54;11.00;86.10
33067;DHT22;19428;49.024;8.366;2023-12-29T22:06:20;11.10;83.90
33067;DHT22;19428;49.024;8.366;2023-12-29T22:08:46;11.10;86.40
33067;DHT22;19428;49.024;8.366;2023-12-29T22:11:12;11.00;88.90
33067;DHT22;19428;49.024;8.366;2023-12-29T22:13:37;11.10;91.10
33067;DHT22;19428;49.024;8.366;2023-12-29T22:16:03;11.10;93.90
33067;DHT22;19428;49.024;8.366;2023-12-29T22:18:29;11.00;94.50
33067;DHT22;19428;49.024;8.366;2023-12-29T22:20:54;11.10;95.80